createdAt,value
2023-02-17T06:42:44.817Z,10.40
2023-02-17T06:44:47.748Z,10.10
2023-02-17T06:46:50.555Z,12.80
2023-02-17T06:48:53.574Z,10.70
2023-02-17T06:50:56.397Z,11.10
2023-02-17T06:52:59.037Z,11.70
2023-02-17T06:55:01.904Z,11.00
2023-02-17T06:57:04.591Z,11.60
2023-02-17T06:59:07.312Z,13.20
2023-02-17T07:01:16.338Z,12.40
2023-02-17T07:03:19.066Z,11.10
2023-02-17T07:05:21.725Z,10.60
2023-02-17T07:07:24.525Z,10.50
2023-02-17T07:09:27.830Z,12.60
2023-02-17T07:11:30.579Z,12.10
2023-02-17T07:13:33.715Z,12.40
2023-02-17T07:15:36.598Z,13.60
2023-02-17T07:17:39.485Z,11.40
2023-02-17T07:19:42.090Z,13.00
2023-02-17T07:21:45.408Z,11.40
2023-02-17T07:23:48.051Z,12.80
2023-02-17T07:25:50.696Z,12.40
2023-02-17T07:27:53.426Z,13.20
2023-02-17T07:29:58.897Z,14.70
2023-02-17T07:32:01.866Z,17.70
2023-02-17T07:34:05.021Z,17.00
2023-02-17T07:36:10.012Z,15.20
2023-02-17T07:38:13.052Z,15.50
2023-02-17T07:40:15.875Z,15.60
2023-02-17T07:42:18.753Z,13.50
2023-02-17T07:44:22.851Z,14.80
2023-02-17T07:46:26.221Z,15.30
2023-02-17T07:48:28.859Z,15.60
2023-02-17T07:50:31.674Z,14.90
2023-02-17T07:52:34.530Z,14.00
2023-02-17T07:54:37.565Z,14.20
2023-02-17T07:56:40.704Z,12.90
2023-02-17T07:58:44.519Z,13.50
2023-02-17T08:00:47.164Z,14.80
2023-02-17T08:02:49.916Z,13.30
2023-02-17T08:04:53.041Z,13.50
2023-02-17T08:06:56.084Z,15.50
2023-02-17T08:08:59.067Z,13.60
2023-02-17T08:11:02.017Z,15.10
2023-02-17T08:13:04.765Z,14.00
2023-02-17T08:15:10.599Z,11.60
2023-02-17T08:17:13.350Z,12.30
2023-02-17T08:19:16.350Z,16.40
2023-02-17T08:21:28.384Z,11.90
2023-02-17T08:23:32.856Z,12.50
2023-02-17T08:25:36.691Z,12.60
2023-02-17T08:27:42.390Z,13.20
2023-02-17T08:29:48.668Z,13.50
2023-02-17T08:31:55.071Z,10.70
2023-02-17T08:33:59.530Z,14.00
2023-02-17T08:36:08.308Z,11.90
2023-02-17T08:38:11.160Z,12.50
2023-02-17T08:40:13.955Z,11.40
2023-02-17T08:42:16.706Z,13.80
2023-02-17T08:44:20.298Z,11.50
2023-02-17T08:46:23.295Z,14.10
2023-02-17T08:48:26.143Z,9.80
2023-02-17T08:50:29.471Z,11.60
2023-02-17T08:52:33.488Z,10.60
2023-02-17T08:54:36.474Z,8.20
2023-02-17T08:56:40.876Z,8.80
2023-02-17T08:58:43.877Z,9.20
2023-02-17T09:00:46.577Z,7.80
2023-02-17T09:02:49.290Z,8.60
2023-02-17T09:04:52.079Z,8.10
2023-02-17T09:06:55.911Z,7.00
2023-02-17T09:08:58.546Z,8.00
2023-02-17T09:11:01.399Z,10.20
2023-02-17T09:13:04.842Z,9.50
2023-02-17T09:15:09.053Z,7.80
2023-02-17T09:17:11.861Z,8.70
2023-02-17T09:19:14.813Z,9.20
2023-02-17T09:21:18.209Z,8.80
2023-02-17T09:23:20.942Z,10.10
2023-02-17T09:25:23.611Z,8.00
2023-02-17T09:27:26.375Z,7.90
2023-02-17T09:29:29.110Z,8.40
2023-02-17T09:31:33.754Z,10.80
2023-02-17T09:33:36.543Z,10.10
2023-02-17T09:35:39.976Z,8.30
2023-02-17T09:37:42.935Z,10.20
2023-02-17T09:39:46.555Z,7.00
2023-02-17T09:41:51.317Z,7.30
2023-02-17T09:43:55.166Z,7.30
2023-02-17T09:46:05.951Z,8.80
2023-02-17T09:48:12.576Z,7.90
2023-02-17T09:50:19.101Z,8.90
2023-02-17T09:52:27.006Z,8.80
2023-02-17T09:54:36.614Z,8.60
2023-02-17T09:56:41.873Z,8.20
2023-02-17T09:58:49.686Z,8.10
2023-02-17T10:00:56.181Z,8.90
2023-02-17T10:03:03.994Z,6.50
2023-02-17T10:05:13.042Z,8.40
2023-02-17T10:07:21.334Z,7.30
2023-02-17T10:09:30.136Z,8.30
2023-02-17T10:11:35.493Z,7.80
2023-02-17T10:13:42.241Z,7.50
2023-02-17T10:15:51.941Z,9.40
2023-02-17T10:18:01.001Z,9.20
2023-02-17T10:20:09.304Z,8.80
2023-02-17T10:22:17.910Z,7.20
2023-02-17T10:24:22.844Z,10.90
2023-02-17T10:26:52.849Z,7.90
2023-02-17T10:29:05.416Z,7.20
2023-02-17T10:31:19.786Z,7.50
2023-02-17T10:33:32.127Z,7.30
2023-02-17T10:35:51.807Z,6.40
2023-02-17T10:38:03.381Z,9.20
2023-02-17T10:40:14.665Z,8.60
2023-02-17T10:42:25.270Z,8.50
2023-02-17T10:44:31.613Z,9.80
2023-02-17T10:46:39.768Z,8.70
2023-02-17T10:48:48.247Z,8.60
2023-02-17T10:50:54.460Z,7.60
2023-02-17T10:52:59.338Z,9.30
2023-02-17T10:55:22.283Z,8.40
2023-02-17T10:57:34.103Z,8.00
2023-02-17T10:59:42.828Z,7.90
2023-02-17T11:01:48.510Z,9.20
2023-02-17T11:04:04.046Z,6.40
2023-02-17T11:06:19.692Z,8.60
2023-02-17T11:08:32.607Z,8.20
2023-02-17T11:10:41.153Z,9.30
2023-02-17T11:12:46.489Z,7.50
2023-02-17T11:14:54.639Z,7.30
2023-02-17T11:17:02.341Z,8.30
2023-02-17T11:19:19.399Z,6.80
2023-02-17T11:21:24.315Z,7.90
2023-02-17T11:23:29.252Z,7.10
2023-02-17T11:25:35.899Z,7.00
2023-02-17T11:27:40.656Z,8.40
2023-02-17T11:29:45.405Z,6.40
2023-02-17T11:31:58.284Z,8.60
2023-02-17T11:34:13.153Z,6.90
2023-02-17T11:36:26.765Z,8.60
2023-02-17T11:38:42.962Z,8.80
2023-02-17T11:40:59.697Z,7.70
2023-02-17T11:43:06.097Z,11.10
2023-02-17T11:45:21.878Z,9.60
2023-02-17T11:47:35.170Z,8.30
2023-02-17T11:50:19.459Z,7.90
2023-02-17T11:52:42.125Z,8.80
2023-02-17T11:54:57.606Z,7.20
2023-02-17T11:57:27.462Z,5.80
2023-02-17T11:59:52.972Z,7.70
2023-02-17T12:02:13.820Z,7.90
2023-02-17T12:04:27.849Z,5.70
2023-02-17T12:06:44.258Z,8.60
2023-02-17T12:09:02.812Z,6.30
2023-02-17T12:11:18.353Z,8.50
2023-02-17T12:13:39.613Z,7.70
2023-02-17T12:16:01.334Z,6.90
2023-02-17T12:18:16.849Z,7.00
2023-02-17T12:20:40.367Z,5.80
2023-02-17T12:23:00.777Z,6.30
2023-02-17T12:25:23.790Z,7.40
2023-02-17T12:27:43.100Z,6.30
2023-02-17T12:30:03.663Z,7.20
2023-02-17T12:32:27.270Z,7.20
2023-02-17T12:34:39.903Z,7.50
2023-02-17T12:36:46.532Z,5.60
2023-02-17T12:38:57.262Z,6.10
2023-02-17T12:41:06.078Z,6.90
2023-02-17T12:43:25.332Z,5.90
2023-02-17T12:45:39.422Z,6.40
2023-02-17T12:47:54.492Z,7.40
2023-02-17T12:50:04.017Z,7.00
2023-02-17T12:52:15.837Z,7.60
2023-02-17T12:54:24.615Z,6.80
2023-02-17T12:56:47.047Z,6.60
2023-02-17T12:58:54.721Z,6.60
2023-02-17T13:01:07.521Z,7.10
2023-02-17T13:03:12.678Z,6.00
2023-02-17T13:05:25.022Z,6.80
2023-02-17T13:07:46.442Z,7.00
2023-02-17T13:09:53.654Z,10.00
2023-02-17T13:12:09.780Z,5.90
2023-02-17T13:14:25.168Z,7.10
2023-02-17T13:16:29.874Z,5.50
2023-02-17T13:18:36.743Z,6.50
2023-02-17T13:20:54.574Z,6.90
2023-02-17T13:23:11.570Z,7.00
2023-02-17T13:25:30.954Z,7.60
2023-02-17T13:27:38.416Z,7.90
2023-02-17T13:29:43.144Z,5.20
2023-02-17T13:31:51.841Z,6.00
2023-02-17T13:33:59.317Z,6.50
2023-02-17T13:36:15.386Z,5.90
2023-02-17T13:38:30.133Z,6.10
2023-02-17T13:40:40.806Z,5.70
2023-02-17T13:42:46.702Z,5.30
2023-02-17T13:44:52.723Z,6.40
2023-02-17T13:47:01.754Z,6.90
2023-02-17T13:49:26.077Z,4.70
2023-02-17T13:51:33.228Z,6.00
2023-02-17T13:53:39.892Z,5.80
2023-02-17T13:55:45.991Z,6.80
2023-02-17T13:57:54.496Z,8.50
2023-02-17T14:00:27.522Z,7.40
2023-02-17T14:02:36.427Z,4.90
2023-02-17T14:04:43.488Z,7.10
2023-02-17T14:06:49.111Z,5.40
2023-02-17T14:08:54.492Z,4.40
2023-02-17T14:11:06.834Z,7.70
2023-02-17T14:13:13.271Z,6.00
2023-02-17T14:15:20.663Z,6.50
2023-02-17T14:17:32.834Z,7.50
2023-02-17T14:19:54.049Z,5.70
2023-02-17T14:22:04.602Z,5.00
2023-02-17T14:24:26.522Z,4.90
2023-02-17T14:26:36.378Z,7.00
2023-02-17T14:28:51.904Z,4.50
2023-02-17T14:30:56.984Z,6.00
2023-02-17T14:33:18.606Z,4.60
2023-02-17T14:35:25.320Z,4.30
2023-02-17T14:37:30.852Z,5.70
2023-02-17T14:39:36.417Z,5.40
2023-02-17T14:41:42.262Z,5.60
2023-02-17T14:43:47.188Z,5.30
2023-02-17T14:45:52.789Z,6.00
2023-02-17T14:48:01.116Z,4.90
2023-02-17T14:50:07.338Z,4.70
2023-02-17T14:52:21.256Z,5.70
2023-02-17T14:54:30.121Z,4.40
2023-02-17T14:56:41.549Z,5.20
2023-02-17T14:58:47.091Z,5.20
2023-02-17T15:00:53.120Z,4.90
2023-02-17T15:02:59.065Z,6.70
2023-02-17T15:05:05.443Z,3.90
2023-02-17T15:07:15.722Z,5.60
2023-02-17T15:09:28.386Z,6.10
2023-02-17T15:11:36.813Z,6.10
2023-02-17T15:13:42.939Z,4.40
2023-02-17T15:15:48.314Z,5.90
2023-02-17T15:17:53.845Z,5.00
2023-02-17T15:19:58.706Z,4.60
2023-02-17T15:22:04.977Z,7.30
2023-02-17T15:24:18.079Z,5.70
2023-02-17T15:26:23.433Z,5.20
